Terminal Aerodrome Forecast
Issued by NWS

Current Version | Previous Version | Text Only | Print | Product List | Glossary Off
Versions: 1 2 3 4 5 6 7 8 9 10 11 12 13 14 15 16 17 18 19 20 21 22 23 24 25 26 27 28 29

000
FTUS41 KILN 261735
TAFLUK
TAF
KLUK 261735Z 2618/2718 25006KT P6SM VCSH BKN035
     FM262100 30005KT P6SM VCSH BKN040
      TEMPO 2622/2624 5SM -SHRA
     FM270100 00000KT P6SM BKN040
     FM270900 00000KT 4SM BR FEW040
      TEMPO 2710/2712 2SM BR
     FM271200 00000KT P6SM FEW040
     FM271500 08003KT P6SM FEW050=

USA.gov is the U.S. government's official web portal to all federal, state and local government web resources and services.